sensor_id;sensor_type;location;lat;lon;timestamp;P1;durP1;ratioP1;P2;durP2;ratioP2
71174;SDS011;58876;51.994;4.472;2023-04-06T00:00:52;30.80;;;30.64;;
71174;SDS011;58876;51.994;4.472;2023-04-06T00:03:17;30.68;;;30.57;;
71174;SDS011;58876;51.994;4.472;2023-04-06T00:05:43;29.26;;;29.08;;
71174;SDS011;58876;51.994;4.472;2023-04-06T00:08:09;29.96;;;29.74;;
71174;SDS011;58876;51.994;4.472;2023-04-06T00:10:35;29.08;;;29.03;;
71174;SDS011;58876;51.994;4.472;2023-04-06T00:13:01;28.18;;;27.99;;
71174;SDS011;58876;51.994;4.472;2023-04-06T00:15:26;27.96;;;27.69;;
71174;SDS011;58876;51.994;4.472;2023-04-06T00:17:52;27.71;;;27.56;;
71174;SDS011;58876;51.994;4.472;2023-04-06T00:20:18;26.56;;;26.54;;
71174;SDS011;58876;51.994;4.472;2023-04-06T00:22:43;26.34;;;26.30;;
71174;SDS011;58876;51.994;4.472;2023-04-06T00:25:10;26.32;;;26.32;;
71174;SDS011;58876;51.994;4.472;2023-04-06T00:27:36;25.80;;;25.74;;
71174;SDS011;58876;51.994;4.472;2023-04-06T00:30:06;26.30;;;26.28;;
71174;SDS011;58876;51.994;4.472;2023-04-06T00:32:32;25.33;;;25.27;;
71174;SDS011;58876;51.994;4.472;2023-04-06T00:34:58;24.88;;;24.84;;
71174;SDS011;58876;51.994;4.472;2023-04-06T00:37:24;24.46;;;24.38;;
71174;SDS011;58876;51.994;4.472;2023-04-06T00:39:49;24.03;;;23.93;;
71174;SDS011;58876;51.994;4.472;2023-04-06T00:42:16;23.36;;;23.34;;
71174;SDS011;58876;51.994;4.472;2023-04-06T00:44:50;23.33;;;23.29;;
71174;SDS011;58876;51.994;4.472;2023-04-06T00:47:19;23.38;;;23.14;;
71174;SDS011;58876;51.994;4.472;2023-04-06T00:49:46;23.20;;;23.01;;
71174;SDS011;58876;51.994;4.472;2023-04-06T00:52:12;22.22;;;22.10;;
71174;SDS011;58876;51.994;4.472;2023-04-06T00:54:37;22.13;;;22.12;;
71174;SDS011;58876;51.994;4.472;2023-04-06T00:57:03;21.49;;;21.35;;
71174;SDS011;58876;51.994;4.472;2023-04-06T00:59:28;21.30;;;21.29;;
71174;SDS011;58876;51.994;4.472;2023-04-06T01:01:54;20.96;;;20.91;;
71174;SDS011;58876;51.994;4.472;2023-04-06T01:04:20;21.02;;;20.89;;
71174;SDS011;58876;51.994;4.472;2023-04-06T01:06:48;20.66;;;20.66;;
71174;SDS011;58876;51.994;4.472;2023-04-06T01:09:14;21.00;;;21.00;;
71174;SDS011;58876;51.994;4.472;2023-04-06T01:11:40;20.41;;;20.37;;
71174;SDS011;58876;51.994;4.472;2023-04-06T01:14:05;20.15;;;20.12;;
71174;SDS011;58876;51.994;4.472;2023-04-06T01:16:32;20.18;;;20.12;;
71174;SDS011;58876;51.994;4.472;2023-04-06T01:18:57;20.33;;;20.33;;
71174;SDS011;58876;51.994;4.472;2023-04-06T01:21:23;20.09;;;20.06;;
71174;SDS011;58876;51.994;4.472;2023-04-06T01:23:48;20.16;;;20.16;;
71174;SDS011;58876;51.994;4.472;2023-04-06T01:26:14;20.57;;;20.57;;
71174;SDS011;58876;51.994;4.472;2023-04-06T01:28:39;19.99;;;19.79;;
71174;SDS011;58876;51.994;4.472;2023-04-06T01:31:08;19.84;;;19.75;;
71174;SDS011;58876;51.994;4.472;2023-04-06T01:33:34;20.27;;;20.26;;
71174;SDS011;58876;51.994;4.472;2023-04-06T01:36:00;20.06;;;20.06;;
71174;SDS011;58876;51.994;4.472;2023-04-06T01:38:26;19.51;;;19.51;;
71174;SDS011;58876;51.994;4.472;2023-04-06T01:40:52;20.65;;;20.60;;
71174;SDS011;58876;51.994;4.472;2023-04-06T01:43:18;20.75;;;20.75;;
71174;SDS011;58876;51.994;4.472;2023-04-06T01:45:44;20.01;;;20.00;;
71174;SDS011;58876;51.994;4.472;2023-04-06T01:48:09;20.22;;;20.22;;
71174;SDS011;58876;51.994;4.472;2023-04-06T01:50:35;20.15;;;20.15;;
71174;SDS011;58876;51.994;4.472;2023-04-06T01:53:01;20.42;;;20.41;;
71174;SDS011;58876;51.994;4.472;2023-04-06T01:55:26;20.51;;;20.51;;
71174;SDS011;58876;51.994;4.472;2023-04-06T01:57:52;20.55;;;20.51;;
71174;SDS011;58876;51.994;4.472;2023-04-06T02:00:17;20.10;;;20.10;;
71174;SDS011;58876;51.994;4.472;2023-04-06T02:02:43;21.08;;;21.04;;
71174;SDS011;58876;51.994;4.472;2023-04-06T02:05:09;20.70;;;20.70;;
71174;SDS011;58876;51.994;4.472;2023-04-06T02:07:34;21.14;;;21.14;;
71174;SDS011;58876;51.994;4.472;2023-04-06T02:10:00;21.78;;;21.54;;
71174;SDS011;58876;51.994;4.472;2023-04-06T02:12:26;21.61;;;21.53;;
71174;SDS011;58876;51.994;4.472;2023-04-06T02:14:51;21.33;;;21.23;;
71174;SDS011;58876;51.994;4.472;2023-04-06T02:17:17;22.26;;;22.13;;
71174;SDS011;58876;51.994;4.472;2023-04-06T02:19:42;21.34;;;21.33;;
71174;SDS011;58876;51.994;4.472;2023-04-06T02:22:09;21.21;;;21.21;;
71174;SDS011;58876;51.994;4.472;2023-04-06T02:24:34;21.34;;;21.32;;
71174;SDS011;58876;51.994;4.472;2023-04-06T02:27:00;21.90;;;21.84;;
71174;SDS011;58876;51.994;4.472;2023-04-06T02:29:26;22.35;;;22.24;;
71174;SDS011;58876;51.994;4.472;2023-04-06T02:31:51;21.78;;;21.59;;
71174;SDS011;58876;51.994;4.472;2023-04-06T02:34:17;22.12;;;22.09;;
71174;SDS011;58876;51.994;4.472;2023-04-06T02:36:46;23.56;;;23.45;;
71174;SDS011;58876;51.994;4.472;2023-04-06T02:39:12;23.06;;;22.93;;
71174;SDS011;58876;51.994;4.472;2023-04-06T02:41:39;23.17;;;22.77;;
71174;SDS011;58876;51.994;4.472;2023-04-06T02:44:06;23.95;;;23.90;;
71174;SDS011;58876;51.994;4.472;2023-04-06T02:46:33;23.22;;;23.14;;
71174;SDS011;58876;51.994;4.472;2023-04-06T02:48:59;22.70;;;22.57;;
71174;SDS011;58876;51.994;4.472;2023-04-06T02:51:25;23.46;;;23.31;;
71174;SDS011;58876;51.994;4.472;2023-04-06T02:53:51;22.98;;;22.85;;
71174;SDS011;58876;51.994;4.472;2023-04-06T02:56:17;23.41;;;23.37;;
71174;SDS011;58876;51.994;4.472;2023-04-06T02:58:43;23.29;;;23.21;;
71174;SDS011;58876;51.994;4.472;2023-04-06T03:01:08;23.40;;;23.30;;
71174;SDS011;58876;51.994;4.472;2023-04-06T03:03:34;23.96;;;23.91;;
71174;SDS011;58876;51.994;4.472;2023-04-06T03:05:59;23.67;;;23.55;;
71174;SDS011;58876;51.994;4.472;2023-04-06T03:08:25;23.80;;;23.52;;
71174;SDS011;58876;51.994;4.472;2023-04-06T03:10:50;23.63;;;23.46;;
71174;SDS011;58876;51.994;4.472;2023-04-06T03:13:16;23.76;;;23.54;;
71174;SDS011;58876;51.994;4.472;2023-04-06T03:15:42;24.28;;;23.95;;
71174;SDS011;58876;51.994;4.472;2023-04-06T03:18:07;23.59;;;23.41;;
71174;SDS011;58876;51.994;4.472;2023-04-06T03:20:32;24.94;;;24.55;;
71174;SDS011;58876;51.994;4.472;2023-04-06T03:22:58;24.24;;;23.87;;
71174;SDS011;58876;51.994;4.472;2023-04-06T03:25:24;24.31;;;24.09;;
71174;SDS011;58876;51.994;4.472;2023-04-06T03:27:49;24.49;;;24.13;;
71174;SDS011;58876;51.994;4.472;2023-04-06T03:30:15;24.28;;;23.86;;
71174;SDS011;58876;51.994;4.472;2023-04-06T03:32:45;24.63;;;24.19;;
71174;SDS011;58876;51.994;4.472;2023-04-06T03:35:10;23.83;;;23.65;;
71174;SDS011;58876;51.994;4.472;2023-04-06T03:37:36;24.48;;;24.21;;
71174;SDS011;58876;51.994;4.472;2023-04-06T03:40:01;24.52;;;24.36;;
71174;SDS011;58876;51.994;4.472;2023-04-06T03:42:28;24.50;;;24.37;;
71174;SDS011;58876;51.994;4.472;2023-04-06T03:44:53;24.30;;;24.14;;
71174;SDS011;58876;51.994;4.472;2023-04-06T03:47:18;24.53;;;24.29;;
71174;SDS011;58876;51.994;4.472;2023-04-06T03:49:44;25.07;;;25.04;;
71174;SDS011;58876;51.994;4.472;2023-04-06T03:52:10;24.40;;;24.15;;
71174;SDS011;58876;51.994;4.472;2023-04-06T03:54:35;24.30;;;24.09;;
71174;SDS011;58876;51.994;4.472;2023-04-06T03:57:01;23.91;;;23.83;;
71174;SDS011;58876;51.994;4.472;2023-04-06T03:59:27;24.93;;;24.45;;
71174;SDS011;58876;51.994;4.472;2023-04-06T04:01:52;23.95;;;23.86;;
71174;SDS011;58876;51.994;4.472;2023-04-06T04:04:18;25.18;;;25.12;;
71174;SDS011;58876;51.994;4.472;2023-04-06T04:06:43;25.45;;;25.24;;
71174;SDS011;58876;51.994;4.472;2023-04-06T04:09:09;25.45;;;25.32;;
71174;SDS011;58876;51.994;4.472;2023-04-06T04:11:35;26.87;;;26.57;;
71174;SDS011;58876;51.994;4.472;2023-04-06T04:14:00;27.49;;;27.06;;
71174;SDS011;58876;51.994;4.472;2023-04-06T04:16:26;27.18;;;26.77;;
71174;SDS011;58876;51.994;4.472;2023-04-06T04:18:51;26.96;;;26.50;;
71174;SDS011;58876;51.994;4.472;2023-04-06T04:21:16;27.70;;;27.14;;
71174;SDS011;58876;51.994;4.472;2023-04-06T04:23:42;28.77;;;28.44;;
71174;SDS011;58876;51.994;4.472;2023-04-06T04:26:07;27.55;;;27.43;;
71174;SDS011;58876;51.994;4.472;2023-04-06T04:28:33;27.96;;;27.72;;
71174;SDS011;58876;51.994;4.472;2023-04-06T04:30:59;28.95;;;28.54;;
71174;SDS011;58876;51.994;4.472;2023-04-06T04:33:24;29.07;;;28.95;;
71174;SDS011;58876;51.994;4.472;2023-04-06T04:35:50;29.18;;;28.97;;
71174;SDS011;58876;51.994;4.472;2023-04-06T04:38:15;29.11;;;29.03;;
71174;SDS011;58876;51.994;4.472;2023-04-06T04:40:41;30.12;;;29.81;;
71174;SDS011;58876;51.994;4.472;2023-04-06T04:43:06;29.79;;;29.32;;
71174;SDS011;58876;51.994;4.472;2023-04-06T04:45:31;29.07;;;28.92;;
71174;SDS011;58876;51.994;4.472;2023-04-06T04:47:57;28.64;;;28.50;;
71174;SDS011;58876;51.994;4.472;2023-04-06T04:50:22;29.50;;;29.20;;
71174;SDS011;58876;51.994;4.472;2023-04-06T04:52:48;30.38;;;29.89;;
71174;SDS011;58876;51.994;4.472;2023-04-06T04:55:13;29.75;;;29.45;;
71174;SDS011;58876;51.994;4.472;2023-04-06T04:57:39;29.65;;;29.18;;
71174;SDS011;58876;51.994;4.472;2023-04-06T05:00:05;29.36;;;29.11;;
71174;SDS011;58876;51.994;4.472;2023-04-06T05:02:31;29.52;;;29.24;;
71174;SDS011;58876;51.994;4.472;2023-04-06T05:04:56;30.53;;;30.26;;
71174;SDS011;58876;51.994;4.472;2023-04-06T05:07:22;30.84;;;30.21;;
71174;SDS011;58876;51.994;4.472;2023-04-06T05:09:47;31.23;;;30.91;;
71174;SDS011;58876;51.994;4.472;2023-04-06T05:12:13;31.05;;;30.84;;
71174;SDS011;58876;51.994;4.472;2023-04-06T05:14:39;32.13;;;31.76;;
71174;SDS011;58876;51.994;4.472;2023-04-06T05:17:04;31.06;;;30.73;;
71174;SDS011;58876;51.994;4.472;2023-04-06T05:19:30;30.96;;;30.58;;
71174;SDS011;58876;51.994;4.472;2023-04-06T05:21:56;31.38;;;31.14;;
71174;SDS011;58876;51.994;4.472;2023-04-06T05:24:21;32.25;;;32.04;;
71174;SDS011;58876;51.994;4.472;2023-04-06T05:26:47;34.82;;;34.48;;
71174;SDS011;58876;51.994;4.472;2023-04-06T05:29:14;35.84;;;35.56;;
71174;SDS011;58876;51.994;4.472;2023-04-06T05:31:40;35.24;;;34.88;;
71174;SDS011;58876;51.994;4.472;2023-04-06T05:34:05;35.28;;;34.84;;
71174;SDS011;58876;51.994;4.472;2023-04-06T05:36:31;33.96;;;33.49;;
71174;SDS011;58876;51.994;4.472;2023-04-06T05:38:57;35.03;;;34.43;;
71174;SDS011;58876;51.994;4.472;2023-04-06T05:41:23;34.80;;;34.42;;
71174;SDS011;58876;51.994;4.472;2023-04-06T05:43:49;35.30;;;34.57;;
71174;SDS011;58876;51.994;4.472;2023-04-06T05:46:15;36.59;;;36.07;;
71174;SDS011;58876;51.994;4.472;2023-04-06T05:48:40;38.53;;;38.03;;
71174;SDS011;58876;51.994;4.472;2023-04-06T05:51:06;38.01;;;37.26;;
71174;SDS011;58876;51.994;4.472;2023-04-06T05:53:31;36.08;;;35.87;;
71174;SDS011;58876;51.994;4.472;2023-04-06T05:56:01;36.74;;;36.31;;
71174;SDS011;58876;51.994;4.472;2023-04-06T05:58:27;37.03;;;36.43;;
71174;SDS011;58876;51.994;4.472;2023-04-06T06:00:56;39.11;;;38.46;;
71174;SDS011;58876;51.994;4.472;2023-04-06T06:03:25;38.07;;;37.45;;
71174;SDS011;58876;51.994;4.472;2023-04-06T06:05:50;39.93;;;39.18;;
71174;SDS011;58876;51.994;4.472;2023-04-06T06:08:16;38.75;;;38.17;;
71174;SDS011;58876;51.994;4.472;2023-04-06T06:10:41;39.30;;;38.29;;
71174;SDS011;58876;51.994;4.472;2023-04-06T06:13:08;40.19;;;39.67;;
71174;SDS011;58876;51.994;4.472;2023-04-06T06:15:33;40.29;;;39.60;;
71174;SDS011;58876;51.994;4.472;2023-04-06T06:17:59;40.47;;;39.64;;
71174;SDS011;58876;51.994;4.472;2023-04-06T06:20:24;40.55;;;40.00;;
71174;SDS011;58876;51.994;4.472;2023-04-06T06:22:50;39.30;;;38.49;;
71174;SDS011;58876;51.994;4.472;2023-04-06T06:25:15;42.11;;;41.22;;
71174;SDS011;58876;51.994;4.472;2023-04-06T06:27:41;41.19;;;40.36;;
71174;SDS011;58876;51.994;4.472;2023-04-06T06:30:07;39.87;;;39.01;;
71174;SDS011;58876;51.994;4.472;2023-04-06T06:32:33;39.37;;;38.64;;
71174;SDS011;58876;51.994;4.472;2023-04-06T06:34:58;38.41;;;37.51;;
71174;SDS011;58876;51.994;4.472;2023-04-06T06:37:24;37.90;;;37.03;;
71174;SDS011;58876;51.994;4.472;2023-04-06T06:39:49;36.66;;;35.76;;
71174;SDS011;58876;51.994;4.472;2023-04-06T06:42:15;37.77;;;36.85;;
71174;SDS011;58876;51.994;4.472;2023-04-06T06:44:40;36.94;;;36.58;;
71174;SDS011;58876;51.994;4.472;2023-04-06T06:47:06;38.94;;;38.20;;
71174;SDS011;58876;51.994;4.472;2023-04-06T06:49:31;37.55;;;37.29;;
71174;SDS011;58876;51.994;4.472;2023-04-06T06:51:56;37.74;;;36.97;;
71174;SDS011;58876;51.994;4.472;2023-04-06T06:54:22;38.65;;;38.10;;
71174;SDS011;58876;51.994;4.472;2023-04-06T06:56:47;38.30;;;37.74;;
71174;SDS011;58876;51.994;4.472;2023-04-06T06:59:13;38.10;;;37.42;;
71174;SDS011;58876;51.994;4.472;2023-04-06T07:01:38;39.56;;;38.82;;
71174;SDS011;58876;51.994;4.472;2023-04-06T07:04:04;38.12;;;37.37;;
71174;SDS011;58876;51.994;4.472;2023-04-06T07:06:29;39.24;;;38.24;;
71174;SDS011;58876;51.994;4.472;2023-04-06T07:08:55;37.00;;;36.53;;
71174;SDS011;58876;51.994;4.472;2023-04-06T07:11:20;38.37;;;37.71;;
71174;SDS011;58876;51.994;4.472;2023-04-06T07:13:46;37.58;;;37.49;;
71174;SDS011;58876;51.994;4.472;2023-04-06T07:16:11;38.11;;;38.01;;
71174;SDS011;58876;51.994;4.472;2023-04-06T07:18:37;38.50;;;37.76;;
71174;SDS011;58876;51.994;4.472;2023-04-06T07:21:02;37.14;;;36.66;;
71174;SDS011;58876;51.994;4.472;2023-04-06T07:23:28;35.70;;;35.45;;
71174;SDS011;58876;51.994;4.472;2023-04-06T07:25:53;36.48;;;36.04;;
71174;SDS011;58876;51.994;4.472;2023-04-06T07:28:19;37.23;;;36.75;;
71174;SDS011;58876;51.994;4.472;2023-04-06T07:30:45;33.53;;;33.28;;
71174;SDS011;58876;51.994;4.472;2023-04-06T07:33:11;32.72;;;32.31;;
71174;SDS011;58876;51.994;4.472;2023-04-06T07:35:36;31.55;;;31.08;;
71174;SDS011;58876;51.994;4.472;2023-04-06T07:38:03;30.14;;;29.76;;
71174;SDS011;58876;51.994;4.472;2023-04-06T07:40:28;31.84;;;31.59;;
71174;SDS011;58876;51.994;4.472;2023-04-06T07:42:54;31.83;;;31.77;;
71174;SDS011;58876;51.994;4.472;2023-04-06T07:45:19;31.58;;;31.43;;
71174;SDS011;58876;51.994;4.472;2023-04-06T07:47:45;33.68;;;33.57;;
71174;SDS011;58876;51.994;4.472;2023-04-06T07:50:11;32.51;;;32.27;;
71174;SDS011;58876;51.994;4.472;2023-04-06T07:52:36;32.09;;;31.70;;
71174;SDS011;58876;51.994;4.472;2023-04-06T07:55:02;32.12;;;31.45;;
71174;SDS011;58876;51.994;4.472;2023-04-06T07:57:27;32.99;;;32.30;;
71174;SDS011;58876;51.994;4.472;2023-04-06T07:59:53;32.57;;;32.26;;
71174;SDS011;58876;51.994;4.472;2023-04-06T08:02:18;34.31;;;34.16;;
71174;SDS011;58876;51.994;4.472;2023-04-06T08:04:44;36.61;;;36.59;;
71174;SDS011;58876;51.994;4.472;2023-04-06T08:07:10;37.26;;;37.01;;
71174;SDS011;58876;51.994;4.472;2023-04-06T08:09:35;37.86;;;37.56;;
71174;SDS011;58876;51.994;4.472;2023-04-06T08:12:01;40.83;;;40.69;;
71174;SDS011;58876;51.994;4.472;2023-04-06T08:14:26;42.25;;;42.19;;
71174;SDS011;58876;51.994;4.472;2023-04-06T08:16:52;42.69;;;42.69;;
71174;SDS011;58876;51.994;4.472;2023-04-06T08:19:17;43.03;;;43.03;;
71174;SDS011;58876;51.994;4.472;2023-04-06T08:21:44;42.22;;;42.22;;
71174;SDS011;58876;51.994;4.472;2023-04-06T08:24:11;41.39;;;41.39;;
71174;SDS011;58876;51.994;4.472;2023-04-06T08:26:37;42.42;;;42.42;;
71174;SDS011;58876;51.994;4.472;2023-04-06T08:29:03;40.98;;;40.98;;
71174;SDS011;58876;51.994;4.472;2023-04-06T08:31:29;42.06;;;42.05;;
71174;SDS011;58876;51.994;4.472;2023-04-06T08:33:55;40.86;;;40.86;;
71174;SDS011;58876;51.994;4.472;2023-04-06T08:36:21;38.58;;;38.58;;
71174;SDS011;58876;51.994;4.472;2023-04-06T08:38:48;33.12;;;33.10;;
71174;SDS011;58876;51.994;4.472;2023-04-06T08:41:14;30.74;;;30.69;;
71174;SDS011;58876;51.994;4.472;2023-04-06T08:43:47;31.11;;;30.85;;
71174;SDS011;58876;51.994;4.472;2023-04-06T08:46:15;30.13;;;30.00;;
71174;SDS011;58876;51.994;4.472;2023-04-06T08:48:41;28.95;;;28.72;;
71174;SDS011;58876;51.994;4.472;2023-04-06T08:51:09;26.85;;;26.79;;
71174;SDS011;58876;51.994;4.472;2023-04-06T08:53:35;25.30;;;25.28;;
71174;SDS011;58876;51.994;4.472;2023-04-06T08:56:01;23.00;;;23.00;;
71174;SDS011;58876;51.994;4.472;2023-04-06T08:58:28;20.95;;;20.94;;
71174;SDS011;58876;51.994;4.472;2023-04-06T09:00:58;23.33;;;23.30;;
71174;SDS011;58876;51.994;4.472;2023-04-06T09:03:25;21.04;;;21.04;;
71174;SDS011;58876;51.994;4.472;2023-04-06T09:05:53;18.65;;;18.63;;
71174;SDS011;58876;51.994;4.472;2023-04-06T09:08:19;17.24;;;17.24;;
71174;SDS011;58876;51.994;4.472;2023-04-06T09:10:44;17.23;;;17.20;;
71174;SDS011;58876;51.994;4.472;2023-04-06T09:13:10;16.25;;;16.25;;
71174;SDS011;58876;51.994;4.472;2023-04-06T09:15:36;17.41;;;17.26;;
71174;SDS011;58876;51.994;4.472;2023-04-06T09:18:02;17.77;;;17.73;;
71174;SDS011;58876;51.994;4.472;2023-04-06T09:20:28;18.48;;;18.35;;
71174;SDS011;58876;51.994;4.472;2023-04-06T09:22:54;17.74;;;17.70;;
71174;SDS011;58876;51.994;4.472;2023-04-06T09:25:21;17.84;;;17.82;;
71174;SDS011;58876;51.994;4.472;2023-04-06T09:28:00;17.57;;;17.57;;
71174;SDS011;58876;51.994;4.472;2023-04-06T09:30:28;18.37;;;18.37;;
71174;SDS011;58876;51.994;4.472;2023-04-06T09:32:56;18.64;;;18.64;;
71174;SDS011;58876;51.994;4.472;2023-04-06T09:35:23;17.49;;;17.49;;
71174;SDS011;58876;51.994;4.472;2023-04-06T09:37:51;16.19;;;16.19;;
71174;SDS011;58876;51.994;4.472;2023-04-06T09:40:18;16.07;;;16.07;;
71174;SDS011;58876;51.994;4.472;2023-04-06T09:42:45;16.38;;;16.38;;
71174;SDS011;58876;51.994;4.472;2023-04-06T09:45:12;16.35;;;16.35;;
71174;SDS011;58876;51.994;4.472;2023-04-06T09:47:39;16.72;;;16.72;;
71174;SDS011;58876;51.994;4.472;2023-04-06T09:50:09;15.49;;;15.49;;
71174;SDS011;58876;51.994;4.472;2023-04-06T09:55:39;16.33;;;16.33;;
71174;SDS011;58876;51.994;4.472;2023-04-06T09:58:08;17.15;;;17.15;;
71174;SDS011;58876;51.994;4.472;2023-04-06T10:03:40;16.68;;;16.68;;
71174;SDS011;58876;51.994;4.472;2023-04-06T10:06:16;16.23;;;16.23;;
71174;SDS011;58876;51.994;4.472;2023-04-06T10:08:47;16.05;;;16.05;;
71174;SDS011;58876;51.994;4.472;2023-04-06T10:11:16;15.69;;;15.69;;
71174;SDS011;58876;51.994;4.472;2023-04-06T10:13:43;17.47;;;17.47;;
71174;SDS011;58876;51.994;4.472;2023-04-06T10:16:13;15.53;;;15.53;;
71174;SDS011;58876;51.994;4.472;2023-04-06T10:18:40;16.77;;;16.77;;
71174;SDS011;58876;51.994;4.472;2023-04-06T10:21:16;16.90;;;16.90;;
71174;SDS011;58876;51.994;4.472;2023-04-06T10:23:52;17.40;;;17.40;;
71174;SDS011;58876;51.994;4.472;2023-04-06T10:26:24;17.84;;;17.84;;
71174;SDS011;58876;51.994;4.472;2023-04-06T10:28:50;17.98;;;17.98;;
71174;SDS011;58876;51.994;4.472;2023-04-06T10:31:23;17.75;;;17.75;;
71174;SDS011;58876;51.994;4.472;2023-04-06T10:33:58;17.28;;;17.28;;
71174;SDS011;58876;51.994;4.472;2023-04-06T10:36:26;20.45;;;20.45;;
71174;SDS011;58876;51.994;4.472;2023-04-06T10:38:55;36.39;;;36.39;;
71174;SDS011;58876;51.994;4.472;2023-04-06T10:41:23;15.93;;;15.93;;
71174;SDS011;58876;51.994;4.472;2023-04-06T10:43:55;15.84;;;15.84;;
71174;SDS011;58876;51.994;4.472;2023-04-06T10:46:25;15.91;;;15.91;;
71174;SDS011;58876;51.994;4.472;2023-04-06T10:48:52;15.96;;;15.96;;
71174;SDS011;58876;51.994;4.472;2023-04-06T10:51:18;16.48;;;16.48;;
71174;SDS011;58876;51.994;4.472;2023-04-06T10:53:52;16.03;;;16.03;;
71174;SDS011;58876;51.994;4.472;2023-04-06T10:56:20;15.78;;;15.78;;
71174;SDS011;58876;51.994;4.472;2023-04-06T10:58:48;15.98;;;15.98;;
71174;SDS011;58876;51.994;4.472;2023-04-06T11:01:16;16.17;;;16.17;;
71174;SDS011;58876;51.994;4.472;2023-04-06T11:03:47;15.69;;;15.69;;
71174;SDS011;58876;51.994;4.472;2023-04-06T11:06:18;16.31;;;16.31;;
71174;SDS011;58876;51.994;4.472;2023-04-06T11:08:44;16.07;;;16.07;;
71174;SDS011;58876;51.994;4.472;2023-04-06T11:11:11;16.48;;;16.48;;
71174;SDS011;58876;51.994;4.472;2023-04-06T11:13:41;15.86;;;15.86;;
71174;SDS011;58876;51.994;4.472;2023-04-06T11:16:13;14.92;;;14.92;;
71174;SDS011;58876;51.994;4.472;2023-04-06T11:18:52;15.22;;;15.22;;
71174;SDS011;58876;51.994;4.472;2023-04-06T11:21:29;14.95;;;14.95;;
71174;SDS011;58876;51.994;4.472;2023-04-06T11:26:38;15.21;;;15.21;;
71174;SDS011;58876;51.994;4.472;2023-04-06T11:29:09;14.89;;;14.89;;
71174;SDS011;58876;51.994;4.472;2023-04-06T11:31:45;15.22;;;15.22;;
71174;SDS011;58876;51.994;4.472;2023-04-06T11:34:19;15.38;;;15.38;;
71174;SDS011;58876;51.994;4.472;2023-04-06T11:36:47;16.06;;;16.06;;
71174;SDS011;58876;51.994;4.472;2023-04-06T11:39:18;16.01;;;16.01;;
71174;SDS011;58876;51.994;4.472;2023-04-06T11:41:49;16.09;;;16.09;;
71174;SDS011;58876;51.994;4.472;2023-04-06T11:44:15;15.50;;;15.50;;
71174;SDS011;58876;51.994;4.472;2023-04-06T11:46:52;16.21;;;16.21;;
71174;SDS011;58876;51.994;4.472;2023-04-06T11:49:18;15.82;;;15.82;;
71174;SDS011;58876;51.994;4.472;2023-04-06T11:51:45;15.96;;;15.96;;
71174;SDS011;58876;51.994;4.472;2023-04-06T11:54:11;15.34;;;15.34;;
71174;SDS011;58876;51.994;4.472;2023-04-06T11:56:38;15.43;;;15.43;;
71174;SDS011;58876;51.994;4.472;2023-04-06T11:59:03;16.30;;;16.30;;
71174;SDS011;58876;51.994;4.472;2023-04-06T12:01:29;15.12;;;15.12;;
71174;SDS011;58876;51.994;4.472;2023-04-06T12:03:55;15.31;;;15.31;;
71174;SDS011;58876;51.994;4.472;2023-04-06T12:06:21;15.20;;;15.20;;
71174;SDS011;58876;51.994;4.472;2023-04-06T12:08:46;14.33;;;14.33;;
71174;SDS011;58876;51.994;4.472;2023-04-06T12:11:12;13.84;;;13.84;;
71174;SDS011;58876;51.994;4.472;2023-04-06T12:13:37;14.05;;;14.05;;
71174;SDS011;58876;51.994;4.472;2023-04-06T12:16:03;14.30;;;14.30;;
71174;SDS011;58876;51.994;4.472;2023-04-06T12:18:29;13.98;;;13.98;;
71174;SDS011;58876;51.994;4.472;2023-04-06T12:20:55;13.82;;;13.82;;
71174;SDS011;58876;51.994;4.472;2023-04-06T12:23:20;13.94;;;13.94;;
71174;SDS011;58876;51.994;4.472;2023-04-06T12:25:46;13.81;;;13.81;;
71174;SDS011;58876;51.994;4.472;2023-04-06T12:28:11;12.76;;;12.76;;
71174;SDS011;58876;51.994;4.472;2023-04-06T12:30:36;13.19;;;13.19;;
71174;SDS011;58876;51.994;4.472;2023-04-06T12:33:02;15.25;;;15.25;;
71174;SDS011;58876;51.994;4.472;2023-04-06T12:35:28;13.65;;;13.65;;
71174;SDS011;58876;51.994;4.472;2023-04-06T12:37:53;13.82;;;13.82;;
71174;SDS011;58876;51.994;4.472;2023-04-06T12:40:19;12.85;;;12.85;;
71174;SDS011;58876;51.994;4.472;2023-04-06T12:42:45;12.15;;;12.15;;
71174;SDS011;58876;51.994;4.472;2023-04-06T12:45:11;13.83;;;13.83;;
71174;SDS011;58876;51.994;4.472;2023-04-06T12:47:37;13.00;;;13.00;;
71174;SDS011;58876;51.994;4.472;2023-04-06T12:50:03;12.95;;;12.95;;
71174;SDS011;58876;51.994;4.472;2023-04-06T12:52:30;12.93;;;12.93;;
71174;SDS011;58876;51.994;4.472;2023-04-06T12:54:57;11.87;;;11.87;;
71174;SDS011;58876;51.994;4.472;2023-04-06T12:57:24;10.89;;;10.89;;
71174;SDS011;58876;51.994;4.472;2023-04-06T12:59:50;10.54;;;10.54;;
71174;SDS011;58876;51.994;4.472;2023-04-06T13:02:16;10.73;;;10.73;;
71174;SDS011;58876;51.994;4.472;2023-04-06T13:04:42;11.78;;;11.78;;
71174;SDS011;58876;51.994;4.472;2023-04-06T13:07:07;12.01;;;12.01;;
71174;SDS011;58876;51.994;4.472;2023-04-06T13:09:33;11.05;;;11.05;;
71174;SDS011;58876;51.994;4.472;2023-04-06T13:11:58;11.08;;;11.08;;
71174;SDS011;58876;51.994;4.472;2023-04-06T13:14:24;10.34;;;10.34;;
71174;SDS011;58876;51.994;4.472;2023-04-06T13:16:50;10.41;;;10.41;;
71174;SDS011;58876;51.994;4.472;2023-04-06T13:19:16;10.33;;;10.33;;
71174;SDS011;58876;51.994;4.472;2023-04-06T13:21:43;10.45;;;10.45;;
71174;SDS011;58876;51.994;4.472;2023-04-06T13:24:08;10.39;;;10.39;;
71174;SDS011;58876;51.994;4.472;2023-04-06T13:26:34;10.37;;;10.37;;
71174;SDS011;58876;51.994;4.472;2023-04-06T13:29:00;10.13;;;10.13;;
71174;SDS011;58876;51.994;4.472;2023-04-06T13:31:27;10.55;;;10.55;;
71174;SDS011;58876;51.994;4.472;2023-04-06T13:33:53;10.96;;;10.96;;
71174;SDS011;58876;51.994;4.472;2023-04-06T13:36:18;10.65;;;10.65;;
71174;SDS011;58876;51.994;4.472;2023-04-06T13:38:44;10.53;;;10.53;;
71174;SDS011;58876;51.994;4.472;2023-04-06T13:41:16;11.38;;;11.38;;
71174;SDS011;58876;51.994;4.472;2023-04-06T13:43:46;10.86;;;10.86;;
71174;SDS011;58876;51.994;4.472;2023-04-06T13:46:11;11.31;;;11.31;;
71174;SDS011;58876;51.994;4.472;2023-04-06T13:48:37;11.19;;;11.19;;
71174;SDS011;58876;51.994;4.472;2023-04-06T13:51:12;11.53;;;11.53;;
71174;SDS011;58876;51.994;4.472;2023-04-06T13:53:38;11.75;;;11.75;;
71174;SDS011;58876;51.994;4.472;2023-04-06T13:56:05;13.19;;;13.19;;
71174;SDS011;58876;51.994;4.472;2023-04-06T13:58:32;12.21;;;12.21;;
71174;SDS011;58876;51.994;4.472;2023-04-06T14:03:30;12.03;;;12.03;;
71174;SDS011;58876;51.994;4.472;2023-04-06T14:05:56;11.67;;;11.67;;
71174;SDS011;58876;51.994;4.472;2023-04-06T14:08:21;12.30;;;12.30;;
71174;SDS011;58876;51.994;4.472;2023-04-06T14:10:47;12.72;;;12.72;;
71174;SDS011;58876;51.994;4.472;2023-04-06T14:13:12;11.13;;;11.13;;
71174;SDS011;58876;51.994;4.472;2023-04-06T14:15:38;10.84;;;10.84;;
71174;SDS011;58876;51.994;4.472;2023-04-06T14:18:04;11.60;;;11.60;;
71174;SDS011;58876;51.994;4.472;2023-04-06T14:20:32;11.52;;;11.52;;
71174;SDS011;58876;51.994;4.472;2023-04-06T14:22:59;10.82;;;10.82;;
71174;SDS011;58876;51.994;4.472;2023-04-06T14:25:25;11.35;;;11.35;;
71174;SDS011;58876;51.994;4.472;2023-04-06T14:27:51;10.21;;;10.21;;